Airfield :
LOGIN :

Register | Disclaimer

   EN    FR    IT 

 










Legend :    VFR   Marginal VFR   IFR   Intensive IFR   Very Intensive IFR
Visi :
Ceiling :
>= 8 km
>= 3000ft
5 to 8 km
1000 to 3000 ft
1500m to 5 km
500 to 1000 ft
800 to 1500m
200 to 500 ft
< 800m
< 200 ft
Symbols :   Thunderstorms  Fog  Heavy snow  Heavy precipitations  Wind > 20 kt
SIGMETs :     Misc.  Thunderstorms  Icing  Turbulence  Mountain Waves  Volcanic Ashes






- Airport Elevation : 289 ft
- IATA code : ZAD


LDZD - Zadar

CURRENT METAR :
  • 182100Z 12009KT 050V200 9999 -RA FEW040 BKN075 15/13 Q1012 NOSIG

EXPIRED METARs :
  • 182030Z 12007KT 100V170 9999 FEW040 BKN075 15/13 Q1013 NOSIG
  • 182000Z 10006KT 9999 FEW040 16/13 Q1013 NOSIG
  • 181930Z 13005KT 9999 FEW040 15/13 Q1013 NOSIG
  • 181900Z 12005KT 9999 FEW040 15/12 Q1013 NOSIG
  • 181830Z 14006KT 9999 FEW040 16/11 Q1013 NOSIG

TAF TAF LDZD
Valid from the 18 at 18:00 until the 19 at 18:00 UTC


181725Z 1818/1918 23007KT CAVOK TX20/1818Z TN12/1904Z
TEMPO 1819/1900 13006KT
PROB40
TEMPO 1900/1904 03007KT RA
PROB40
TEMPO 1904/1913 27015G25KT 4000 TSRA FEW025CB BKN030
BECMG 1911/1913 30010KT



MET'MAP, your aeronautical weather chart ! - Copyright ORBIFLY December 2007 - Disclaimer

ORBIFLY MET'MAP TEAM :

Programming & Development : Alexandra Zaïnal
Concept & original design : Baudouin d'Aumeries
Assistance for programming : Marc-Olivier Méhu
Technical & hardware support : Manuel Goepfert

Contact : metmap@orbifly.com




SOURCES & CREDITS :

   NOAA